createdAt,value
2022-12-25T00:01:21.900Z,98473.05
2022-12-25T00:06:28.812Z,98479.71
2022-12-25T00:11:35.897Z,98483.03
2022-12-25T00:16:42.942Z,98491.74
2022-12-25T00:21:50.239Z,98500.35
2022-12-25T00:26:57.436Z,98500.51
2022-12-25T00:32:04.648Z,98506.60
2022-12-25T00:37:11.802Z,98512.87
2022-12-25T00:42:21.815Z,98515.73
2022-12-25T00:47:28.614Z,98523.26
2022-12-25T00:52:35.729Z,98531.75
2022-12-25T00:57:42.799Z,98547.81
2022-12-25T01:02:49.790Z,98553.61
2022-12-25T01:07:56.918Z,98559.11
2022-12-25T01:13:04.097Z,98568.60
2022-12-25T01:18:13.010Z,98576.52
2022-12-25T01:23:20.364Z,98586.04
2022-12-25T01:28:26.968Z,98589.84
2022-12-25T01:33:33.819Z,98595.80
2022-12-25T01:38:40.727Z,98597.79
2022-12-25T01:44:00.840Z,98601.42
2022-12-25T01:49:10.345Z,98593.29
2022-12-25T01:54:19.940Z,98598.48
2022-12-25T01:59:28.053Z,98608.15
2022-12-25T02:04:40.560Z,98608.21
2022-12-25T02:09:48.007Z,98602.92
2022-12-25T02:15:02.818Z,98615.93
2022-12-25T02:20:30.061Z,98625.55
2022-12-25T02:25:45.201Z,98621.25
2022-12-25T02:30:55.462Z,98624.98
2022-12-25T02:36:04.288Z,98623.75
2022-12-25T02:41:16.750Z,98623.72
2022-12-25T02:46:44.249Z,98612.63
2022-12-25T02:52:17.020Z,98618.36
2022-12-25T02:57:44.289Z,98615.10
2022-12-25T03:03:09.134Z,98611.14
2022-12-25T03:08:19.832Z,98618.98
2022-12-25T03:13:29.957Z,98619.85
2022-12-25T03:18:37.114Z,98624.17
2022-12-25T03:24:04.639Z,98627.79
2022-12-25T03:29:32.319Z,98627.27
2022-12-25T03:35:01.576Z,98621.55
2022-12-25T03:40:31.172Z,98632.98
2022-12-25T03:45:58.893Z,98639.87
2022-12-25T03:51:27.651Z,98646.09
2022-12-25T03:56:52.980Z,98643.42
2022-12-25T04:02:14.369Z,98649.98
2022-12-25T04:07:39.347Z,98658.95
2022-12-25T04:13:04.040Z,98660.48
2022-12-25T04:18:28.340Z,98669.95
2022-12-25T04:23:52.741Z,98678.67
2022-12-25T04:29:17.259Z,98683.84
2022-12-25T04:34:42.061Z,98687.16
2022-12-25T04:39:49.425Z,98690.26
2022-12-25T04:44:56.550Z,98691.75
2022-12-25T04:50:03.770Z,98696.19
2022-12-25T04:55:11.587Z,98694.95
2022-12-25T05:00:19.300Z,98694.56
2022-12-25T05:05:26.160Z,98691.15
2022-12-25T05:10:33.126Z,98684.23
2022-12-25T05:15:43.070Z,98693.89
2022-12-25T05:20:55.198Z,98697.27
2022-12-25T05:26:05.570Z,98698.45
2022-12-25T05:31:12.475Z,98697.95
2022-12-25T05:36:19.743Z,98707.42
2022-12-25T05:41:33.788Z,98714.91
2022-12-25T05:46:41.870Z,98721.95
2022-12-25T05:51:49.130Z,98731.10
2022-12-25T05:56:56.411Z,98735.43
2022-12-25T06:02:04.065Z,98727.42
2022-12-25T06:07:11.332Z,98727.48
2022-12-25T06:12:18.100Z,98738.45
2022-12-25T06:17:26.532Z,98743.96
2022-12-25T06:22:33.449Z,98751.20
2022-12-25T06:27:40.369Z,98761.98
2022-12-25T06:32:47.331Z,98765.77
2022-12-25T06:37:54.559Z,98771.76
2022-12-25T06:43:01.638Z,98785.61
2022-12-25T06:48:08.709Z,98796.98
2022-12-25T06:53:15.591Z,98803.67
2022-12-25T06:58:23.009Z,98818.42
2022-12-25T07:03:31.101Z,98818.42
2022-12-25T07:08:37.959Z,98827.02
2022-12-25T07:13:44.828Z,98838.23
2022-12-25T07:18:52.121Z,98857.50
2022-12-25T07:23:58.993Z,98873.84
2022-12-25T07:29:06.249Z,98877.31
2022-12-25T07:34:13.460Z,98878.89
2022-12-25T07:39:20.367Z,98876.95
2022-12-25T07:44:27.437Z,98885.98
2022-12-25T07:49:34.549Z,98882.41
2022-12-25T07:54:41.442Z,98883.58
2022-12-25T07:59:48.451Z,98878.39
2022-12-25T08:04:55.848Z,98881.67
2022-12-25T08:10:03.143Z,98884.31
2022-12-25T08:15:11.015Z,98886.65
2022-12-25T08:20:18.343Z,98884.23
2022-12-25T08:25:25.219Z,98885.63
2022-12-25T08:30:31.971Z,98879.15
2022-12-25T08:35:38.870Z,98871.98
2022-12-25T08:40:45.898Z,98861.83
2022-12-25T08:45:53.155Z,98858.54
2022-12-25T08:51:00.508Z,98871.15
2022-12-25T08:56:08.258Z,98885.30
2022-12-25T09:01:15.837Z,98902.39
2022-12-25T09:06:23.518Z,98903.90
2022-12-25T09:11:30.534Z,98905.98
2022-12-25T09:16:37.760Z,98905.96
2022-12-25T09:21:44.758Z,98916.73
2022-12-25T09:26:52.088Z,98917.09
2022-12-25T09:31:59.136Z,98925.41
2022-12-25T09:37:06.039Z,98923.00
2022-12-25T09:42:17.559Z,98923.41
2022-12-25T09:47:26.741Z,98934.64
2022-12-25T09:52:37.399Z,98938.39
2022-12-25T09:57:44.830Z,98939.36
2022-12-25T10:02:59.677Z,98932.05
2022-12-25T10:08:11.578Z,98926.77
2022-12-25T10:13:24.859Z,98926.36
2022-12-25T10:18:45.049Z,98920.91
2022-12-25T10:23:54.610Z,98912.39
2022-12-25T10:29:03.979Z,98910.18
2022-12-25T10:34:12.902Z,98901.08
2022-12-25T10:39:20.368Z,98904.02
2022-12-25T10:44:27.244Z,98898.21
2022-12-25T10:49:35.479Z,98884.06
2022-12-25T10:54:43.829Z,98888.73
2022-12-25T10:59:51.311Z,98890.14
2022-12-25T11:05:03.361Z,98885.42
2022-12-25T11:10:21.235Z,98877.27
2022-12-25T11:15:47.479Z,98866.70
2022-12-25T11:20:55.524Z,98863.05
2022-12-25T11:26:03.645Z,98857.49
2022-12-25T11:31:13.449Z,98860.11
2022-12-25T11:36:23.349Z,98858.49
2022-12-25T11:41:33.859Z,98860.37
2022-12-25T11:46:43.349Z,98862.16
2022-12-25T11:51:52.215Z,98862.25
2022-12-25T11:57:01.370Z,98860.52
2022-12-25T12:02:21.032Z,98851.55
2022-12-25T12:07:29.759Z,98849.15
2022-12-25T12:12:48.509Z,98846.73
2022-12-25T12:17:56.951Z,98843.20
2022-12-25T12:23:06.358Z,98842.67
2022-12-25T12:28:16.297Z,98844.34
2022-12-25T12:33:23.398Z,98840.89
2022-12-25T12:38:31.118Z,98833.47
2022-12-25T12:43:40.888Z,98835.65
2022-12-25T12:48:49.174Z,98832.55
2022-12-25T12:54:06.508Z,98830.17
2022-12-25T12:59:13.779Z,98839.11
2022-12-25T13:04:45.475Z,98839.54
2022-12-25T13:10:01.488Z,98838.95
2022-12-25T13:15:13.252Z,98832.45
2022-12-25T13:20:24.787Z,98841.42
2022-12-25T13:25:32.025Z,98836.64
2022-12-25T13:30:39.478Z,98841.28
2022-12-25T13:35:46.529Z,98833.81
2022-12-25T13:41:08.671Z,98833.49
2022-12-25T13:46:16.971Z,98836.44
2022-12-25T13:51:23.862Z,98848.59
2022-12-25T13:56:31.032Z,98828.87
2022-12-25T14:01:43.486Z,98831.63
2022-12-25T14:06:51.151Z,98818.14
2022-12-25T14:11:58.258Z,98817.52
2022-12-25T14:17:05.589Z,98824.52
2022-12-25T14:22:18.928Z,98831.61
2022-12-25T14:27:26.991Z,98845.59
2022-12-25T14:32:41.788Z,98838.92
2022-12-25T14:37:51.078Z,98826.95
2022-12-25T14:42:58.559Z,98807.29
2022-12-25T14:48:22.870Z,98798.01
2022-12-25T14:53:35.385Z,98797.92
2022-12-25T14:58:44.722Z,98820.95
2022-12-25T15:03:51.809Z,98833.08
2022-12-25T15:08:59.824Z,98838.83
2022-12-25T15:14:06.570Z,98849.45
2022-12-25T15:19:19.239Z,98846.32
2022-12-25T15:24:28.968Z,98846.10
2022-12-25T15:30:08.491Z,98839.64
2022-12-25T15:35:02.879Z,98828.70
2022-12-25T15:40:11.282Z,98818.24
2022-12-25T15:45:20.987Z,98807.33
2022-12-25T15:50:28.308Z,98796.64
2022-12-25T15:55:37.089Z,98781.42
2022-12-25T16:00:44.500Z,98796.90
2022-12-25T16:05:51.862Z,98787.32
2022-12-25T16:10:58.984Z,98773.59
2022-12-25T16:16:07.320Z,98788.84
2022-12-25T16:21:16.332Z,98783.35
2022-12-25T16:26:23.690Z,98777.66
2022-12-25T16:31:30.715Z,98778.92
2022-12-25T16:36:38.198Z,98775.75
2022-12-25T16:41:45.298Z,98772.98
2022-12-25T16:46:52.592Z,98769.24
2022-12-25T16:51:59.850Z,98770.22
2022-12-25T16:57:07.102Z,98768.77
2022-12-25T17:02:16.678Z,98774.37
2022-12-25T17:07:23.720Z,98780.10
2022-12-25T17:12:30.670Z,98774.06
2022-12-25T17:17:37.885Z,98761.25
2022-12-25T17:22:45.208Z,98756.03
2022-12-25T17:27:52.791Z,98724.30
2022-12-25T17:32:59.989Z,98714.48
2022-12-25T17:38:06.853Z,98709.79
2022-12-25T17:43:20.448Z,98708.98
2022-12-25T17:48:28.130Z,98710.45
2022-12-25T17:53:36.121Z,98706.45
2022-12-25T17:58:43.690Z,98713.59
2022-12-25T18:03:51.089Z,98713.72
2022-12-25T18:08:58.842Z,98720.56
2022-12-25T18:14:06.660Z,98713.55
2022-12-25T18:19:13.954Z,98704.39
2022-12-25T18:24:20.648Z,98705.09
2022-12-25T18:29:27.499Z,98716.19
2022-12-25T18:34:34.580Z,98714.25
2022-12-25T18:39:41.596Z,98702.83
2022-12-25T18:44:48.668Z,98711.44
2022-12-25T18:49:55.731Z,98708.25
2022-12-25T18:55:02.781Z,98692.83
2022-12-25T19:00:10.927Z,98683.55
2022-12-25T19:05:18.245Z,98691.42
2022-12-25T19:10:25.234Z,98695.08
2022-12-25T19:15:32.615Z,98687.55
2022-12-25T19:20:42.009Z,98685.79
2022-12-25T19:25:49.931Z,98677.71
2022-12-25T19:30:56.989Z,98668.71
2022-12-25T19:36:04.690Z,98665.70
2022-12-25T19:41:12.239Z,98656.51
2022-12-25T19:46:20.676Z,98652.45
2022-12-25T19:51:28.169Z,98662.50
2022-12-25T19:56:35.708Z,98648.56
2022-12-25T20:01:42.903Z,98638.04
2022-12-25T20:06:49.838Z,98628.26
2022-12-25T20:11:56.730Z,98625.70
2022-12-25T20:17:04.023Z,98615.58
2022-12-25T20:22:11.568Z,98609.36
2022-12-25T20:27:18.971Z,98614.65
2022-12-25T20:32:25.930Z,98611.42
2022-12-25T20:37:33.310Z,98604.08
2022-12-25T20:42:40.528Z,98600.93
2022-12-25T20:47:47.659Z,98586.65
2022-12-25T20:52:56.849Z,98583.09
2022-12-25T20:58:04.071Z,98574.37
2022-12-25T21:03:11.677Z,98566.64
2022-12-25T21:08:19.269Z,98571.77
2022-12-25T21:13:26.649Z,98569.98
2022-12-25T21:18:33.758Z,98554.29
2022-12-25T21:23:41.462Z,98523.65
2022-12-25T21:28:49.043Z,98529.64
2022-12-25T21:33:57.868Z,98536.51
2022-12-25T21:39:06.357Z,98537.17
2022-12-25T21:44:14.020Z,98550.05
2022-12-25T21:49:34.738Z,98535.15
2022-12-25T21:54:41.898Z,98529.02
2022-12-25T21:59:49.730Z,98524.39
2022-12-25T22:04:56.830Z,98519.49
2022-12-25T22:10:03.988Z,98507.43
2022-12-25T22:15:12.193Z,98524.88
2022-12-25T22:20:19.865Z,98518.87
2022-12-25T22:25:26.908Z,98506.91
2022-12-25T22:30:33.812Z,98500.94
2022-12-25T22:35:40.999Z,98495.95
2022-12-25T22:40:48.409Z,98490.47
2022-12-25T22:45:55.564Z,98479.78
2022-12-25T22:51:05.209Z,98469.48
2022-12-25T22:56:12.259Z,98474.63
2022-12-25T23:01:19.284Z,98476.29
2022-12-25T23:06:26.316Z,98482.50
2022-12-25T23:11:33.212Z,98489.08
2022-12-25T23:16:40.120Z,98481.82
2022-12-25T23:22:04.017Z,98477.15
2022-12-25T23:27:11.432Z,98483.48
2022-12-25T23:32:22.840Z,98468.13
2022-12-25T23:37:29.688Z,98466.10
2022-12-25T23:42:38.078Z,98455.29
2022-12-25T23:47:45.237Z,98436.30
2022-12-25T23:52:52.199Z,98420.33
2022-12-25T23:57:59.155Z,98418.07
